createdAt,value
2022-09-12T00:00:16.578Z,11.07
2022-09-12T00:01:17.059Z,11.04
2022-09-12T00:02:16.579Z,11.03
2022-09-12T00:03:16.546Z,11.02
2022-09-12T00:04:16.539Z,10.99
2022-09-12T00:05:16.515Z,10.96
2022-09-12T00:06:20.513Z,10.96
2022-09-12T00:07:17.898Z,10.92
2022-09-12T00:08:16.477Z,10.88
2022-09-12T00:09:16.468Z,10.78
2022-09-12T00:10:16.457Z,10.64
2022-09-12T00:11:16.439Z,10.66
2022-09-12T00:12:16.432Z,10.74
2022-09-12T00:13:16.785Z,10.76
2022-09-12T00:14:16.406Z,10.79
2022-09-12T00:15:16.392Z,10.81
2022-09-12T00:16:16.420Z,10.81
2022-09-12T00:17:16.365Z,10.78
2022-09-12T00:18:16.354Z,10.78
2022-09-12T00:19:16.805Z,10.71
2022-09-12T00:20:16.341Z,10.68
2022-09-12T00:21:16.320Z,10.70
2022-09-12T00:22:16.304Z,10.67
2022-09-12T00:23:16.284Z,10.63
2022-09-12T00:24:16.311Z,10.55
2022-09-12T00:25:16.629Z,10.52
2022-09-12T00:26:16.252Z,10.53
2022-09-12T00:27:16.232Z,10.55
2022-09-12T00:28:16.226Z,10.56
2022-09-12T00:29:16.214Z,10.56
2022-09-12T00:30:16.199Z,10.60
2022-09-12T00:31:23.554Z,10.56
2022-09-12T00:32:16.157Z,10.59
2022-09-12T00:33:23.149Z,10.52
2022-09-12T00:34:23.136Z,10.51
2022-09-12T00:35:24.566Z,10.48
2022-09-12T00:36:16.122Z,10.48
2022-09-12T00:37:16.097Z,10.47
2022-09-12T00:38:16.093Z,10.45
2022-09-12T00:39:16.073Z,10.41
2022-09-12T00:40:16.106Z,10.38
2022-09-12T00:41:16.473Z,10.36
2022-09-12T00:42:16.052Z,10.33
2022-09-12T00:43:16.024Z,10.32
2022-09-12T00:44:16.025Z,10.33
2022-09-12T00:45:15.990Z,10.33
2022-09-12T00:46:15.995Z,10.33
2022-09-12T00:47:16.353Z,10.36
2022-09-12T00:48:15.965Z,10.38
2022-09-12T00:49:15.951Z,10.36
2022-09-12T00:50:15.941Z,10.33
2022-09-12T00:51:15.932Z,10.32
2022-09-12T00:52:16.258Z,10.30
2022-09-12T00:53:15.901Z,10.29
2022-09-12T00:54:15.893Z,10.27
2022-09-12T00:55:15.870Z,10.29
2022-09-12T00:56:15.862Z,10.29
2022-09-12T00:57:15.861Z,10.29
2022-09-12T00:58:16.159Z,10.25
2022-09-12T00:59:15.817Z,10.20
2022-09-12T01:00:15.820Z,10.12
2022-09-12T01:01:15.863Z,10.07
2022-09-12T01:02:16.322Z,10.04
2022-09-12T01:03:15.769Z,10.05
2022-09-12T01:04:15.763Z,10.07
2022-09-12T01:05:15.738Z,10.11
2022-09-12T01:06:15.740Z,10.17
2022-09-12T01:07:15.716Z,10.15
2022-09-12T01:08:16.102Z,10.12
2022-09-12T01:09:15.687Z,10.14
2022-09-12T01:10:15.676Z,10.12
2022-09-12T01:11:15.671Z,10.09
2022-09-12T01:12:15.669Z,10.09
2022-09-12T01:13:15.655Z,10.09
2022-09-12T01:14:15.993Z,10.08
2022-09-12T01:15:15.618Z,10.12
2022-09-12T01:16:15.636Z,10.12
2022-09-12T01:17:15.588Z,10.15
2022-09-12T01:18:15.586Z,10.15
2022-09-12T01:19:15.565Z,10.12
2022-09-12T01:20:15.924Z,10.12
2022-09-12T01:21:15.546Z,10.12
2022-09-12T01:22:15.535Z,10.12
2022-09-12T01:23:15.514Z,10.11
2022-09-12T01:24:15.513Z,10.15
2022-09-12T01:25:15.490Z,10.15
2022-09-12T01:26:15.842Z,10.15
2022-09-12T01:27:15.473Z,10.15
2022-09-12T01:28:15.453Z,10.15
2022-09-12T01:29:15.455Z,10.14
2022-09-12T01:30:15.431Z,10.14
2022-09-12T01:31:15.419Z,10.17
2022-09-12T01:32:15.888Z,10.17
2022-09-12T01:33:15.380Z,10.18
2022-09-12T01:34:15.382Z,10.15
2022-09-12T01:35:22.346Z,10.14
2022-09-12T01:36:22.353Z,10.11
2022-09-12T01:37:15.758Z,10.15
2022-09-12T01:38:15.332Z,10.20
2022-09-12T01:39:15.311Z,10.25
2022-09-12T01:40:15.345Z,10.25
2022-09-12T01:41:15.289Z,10.26
2022-09-12T01:42:15.296Z,10.23
2022-09-12T01:43:15.632Z,10.22
2022-09-12T01:44:15.280Z,10.22
2022-09-12T01:45:15.236Z,10.22
2022-09-12T01:46:15.219Z,10.20
2022-09-12T01:47:15.208Z,10.15
2022-09-12T01:48:15.199Z,10.14
2022-09-12T01:49:15.536Z,10.11
2022-09-12T01:50:15.169Z,10.09
2022-09-12T01:51:15.163Z,10.08
2022-09-12T01:52:15.161Z,10.07
2022-09-12T01:53:15.131Z,10.02
2022-09-12T01:54:15.129Z,9.99
2022-09-12T01:55:15.447Z,9.97
2022-09-12T01:56:15.098Z,9.97
2022-09-12T01:57:15.088Z,9.94
2022-09-12T01:58:15.077Z,9.97
2022-09-12T01:59:15.057Z,9.96
2022-09-12T02:00:15.468Z,9.96
2022-09-12T02:01:15.087Z,9.94
2022-09-12T02:02:15.093Z,9.94
2022-09-12T02:03:15.006Z,9.91
2022-09-12T02:04:14.994Z,9.89
2022-09-12T02:05:14.977Z,9.84
2022-09-12T02:06:15.385Z,9.79
2022-09-12T02:07:14.956Z,9.78
2022-09-12T02:08:14.941Z,9.78
2022-09-12T02:09:14.926Z,9.76
2022-09-12T02:10:15.241Z,9.76
2022-09-12T02:11:14.902Z,9.75
2022-09-12T02:12:14.890Z,9.72
2022-09-12T02:13:14.874Z,9.72
2022-09-12T02:14:14.864Z,9.74
2022-09-12T02:15:14.852Z,9.74
2022-09-12T02:16:15.295Z,9.74
2022-09-12T02:17:14.834Z,9.71
2022-09-12T02:18:14.817Z,9.72
2022-09-12T02:19:14.800Z,9.72
2022-09-12T02:20:26.084Z,9.71
2022-09-12T02:21:16.153Z,9.66
2022-09-12T02:22:14.770Z,9.65
2022-09-12T02:23:14.750Z,9.60
2022-09-12T02:24:14.735Z,9.56
2022-09-12T02:25:14.719Z,9.53
2022-09-12T02:26:14.721Z,9.58
2022-09-12T02:27:15.031Z,9.66
2022-09-12T02:28:14.700Z,9.66
2022-09-12T02:29:14.680Z,9.66
2022-09-12T02:30:14.658Z,9.61
2022-09-12T02:31:14.644Z,9.60
2022-09-12T02:32:15.066Z,9.57
2022-09-12T02:33:14.634Z,9.57
2022-09-12T02:34:14.617Z,9.56
2022-09-12T02:35:14.592Z,9.54
2022-09-12T02:36:14.587Z,9.57
2022-09-12T02:37:14.567Z,9.57
2022-09-12T02:38:14.978Z,9.56
2022-09-12T02:39:14.543Z,9.56
2022-09-12T02:40:14.608Z,9.50
2022-09-12T02:41:14.514Z,9.47
2022-09-12T02:42:14.515Z,9.43
2022-09-12T02:43:14.486Z,9.40
2022-09-12T02:44:14.835Z,9.40
2022-09-12T02:45:14.457Z,9.46
2022-09-12T02:46:14.452Z,9.51
2022-09-12T02:47:14.435Z,9.57
2022-09-12T02:48:14.437Z,9.57
2022-09-12T02:49:14.408Z,9.60
2022-09-12T02:50:14.834Z,9.66
2022-09-12T02:51:14.393Z,9.68
2022-09-12T02:52:14.372Z,9.66
2022-09-12T02:53:14.360Z,9.68
2022-09-12T02:54:14.353Z,9.71
2022-09-12T02:55:14.343Z,9.71
2022-09-12T02:56:14.751Z,9.69
2022-09-12T02:57:14.304Z,9.66
2022-09-12T02:58:14.303Z,9.69
2022-09-12T02:59:14.290Z,9.68
2022-09-12T03:00:14.271Z,9.66
2022-09-12T03:01:14.695Z,9.66
2022-09-12T03:02:14.301Z,9.65
2022-09-12T03:03:14.232Z,9.65
2022-09-12T03:04:14.239Z,9.65
2022-09-12T03:05:14.202Z,9.60
2022-09-12T03:06:14.193Z,9.57
2022-09-12T03:07:14.515Z,9.57
2022-09-12T03:08:14.164Z,9.57
2022-09-12T03:09:21.146Z,9.54
2022-09-12T03:10:21.144Z,9.53
2022-09-12T03:11:14.554Z,9.54
2022-09-12T03:12:14.112Z,9.57
2022-09-12T03:13:14.105Z,9.57
2022-09-12T03:14:14.082Z,9.57
2022-09-12T03:15:14.084Z,9.56
2022-09-12T03:16:14.149Z,9.53
2022-09-12T03:17:14.471Z,9.50
2022-09-12T03:18:14.040Z,9.46
2022-09-12T03:19:14.030Z,9.43
2022-09-12T03:20:14.012Z,9.43
2022-09-12T03:21:14.005Z,9.40
2022-09-12T03:22:13.984Z,9.36
2022-09-12T03:23:14.320Z,9.35
2022-09-12T03:24:13.963Z,9.31
2022-09-12T03:25:13.950Z,9.29
2022-09-12T03:26:13.930Z,9.24
2022-09-12T03:27:13.926Z,9.21
2022-09-12T03:28:13.909Z,9.21
2022-09-12T03:29:14.268Z,9.18
2022-09-12T03:30:13.878Z,9.17
2022-09-12T03:31:13.878Z,9.14
2022-09-12T03:32:13.851Z,9.14
2022-09-12T03:33:13.847Z,9.13
2022-09-12T03:34:13.827Z,9.14
2022-09-12T03:35:14.248Z,9.13
2022-09-12T03:36:13.809Z,9.13
2022-09-12T03:37:13.796Z,9.14
2022-09-12T03:38:13.780Z,9.17
2022-09-12T03:39:13.765Z,9.20
2022-09-12T03:40:14.203Z,9.24
2022-09-12T03:41:13.745Z,9.29
2022-09-12T03:42:13.735Z,9.36
2022-09-12T03:43:13.726Z,9.43
2022-09-12T03:44:13.706Z,9.48
2022-09-12T03:45:14.067Z,9.53
2022-09-12T03:46:13.694Z,9.53
2022-09-12T03:47:13.662Z,9.56
2022-09-12T03:48:13.650Z,9.58
2022-09-12T03:49:13.634Z,9.64
2022-09-12T03:50:14.050Z,9.66
2022-09-12T03:51:13.614Z,9.71
2022-09-12T03:52:13.601Z,9.74
2022-09-12T03:53:16.943Z,9.75
2022-09-12T03:54:13.560Z,9.76
2022-09-12T03:55:20.980Z,9.78
2022-09-12T03:56:20.528Z,9.78
2022-09-12T03:57:20.522Z,9.79
2022-09-12T03:58:20.522Z,9.78
2022-09-12T03:59:20.508Z,9.79
2022-09-12T04:00:17.670Z,9.78
2022-09-12T04:01:15.146Z,9.76
2022-09-12T04:02:13.503Z,9.75
2022-09-12T04:03:13.466Z,9.72
2022-09-12T04:04:13.444Z,9.71
2022-09-12T04:05:13.426Z,9.69
2022-09-12T04:06:13.417Z,9.68
2022-09-12T04:07:13.854Z,9.66
2022-09-12T04:08:13.386Z,9.68
2022-09-12T04:09:13.386Z,9.64
2022-09-12T04:10:16.060Z,9.65
2022-09-12T04:11:13.665Z,9.61
2022-09-12T04:12:13.342Z,9.58
2022-09-12T04:13:13.337Z,9.56
2022-09-12T04:14:13.316Z,9.56
2022-09-12T04:15:13.294Z,9.54
2022-09-12T04:16:13.322Z,9.53
2022-09-12T04:17:13.270Z,9.51
2022-09-12T04:18:13.255Z,9.50
2022-09-12T04:19:13.252Z,9.48
2022-09-12T04:20:13.224Z,9.46
2022-09-12T04:21:13.212Z,9.46
2022-09-12T04:22:13.252Z,9.43
2022-09-12T04:23:13.195Z,9.42
2022-09-12T04:24:13.180Z,9.40
2022-09-12T04:25:13.180Z,9.39
2022-09-12T04:26:13.155Z,9.39
2022-09-12T04:27:13.152Z,9.40
2022-09-12T04:28:13.575Z,9.40
2022-09-12T04:29:13.141Z,9.39
2022-09-12T04:30:13.101Z,9.40
2022-09-12T04:31:13.132Z,9.43
2022-09-12T04:32:13.430Z,9.47
2022-09-12T04:33:13.071Z,9.50
2022-09-12T04:34:13.062Z,9.50
2022-09-12T04:35:13.051Z,9.51
2022-09-12T04:36:13.027Z,9.51
2022-09-12T04:37:13.019Z,9.53
2022-09-12T04:38:13.030Z,9.53
2022-09-12T04:39:19.994Z,9.51
2022-09-12T04:40:19.971Z,9.51
2022-09-12T04:41:12.972Z,9.53
2022-09-12T04:42:13.351Z,9.53
2022-09-12T04:43:14.638Z,9.54
2022-09-12T04:44:12.909Z,9.56
2022-09-12T04:45:12.909Z,9.58
2022-09-12T04:46:12.933Z,9.60
2022-09-12T04:47:12.878Z,9.60
2022-09-12T04:48:13.258Z,9.60
2022-09-12T04:49:12.862Z,9.60
2022-09-12T04:50:12.849Z,9.60
2022-09-12T04:51:12.845Z,9.60
2022-09-12T04:52:12.818Z,9.60
2022-09-12T04:53:12.819Z,9.60
2022-09-12T04:54:13.161Z,9.60
2022-09-12T04:55:12.799Z,9.58
2022-09-12T04:56:12.781Z,9.60
2022-09-12T04:57:12.770Z,9.58
2022-09-12T04:58:12.750Z,9.57
2022-09-12T04:59:12.726Z,9.56
2022-09-12T05:00:13.090Z,9.56
2022-09-12T05:01:12.738Z,9.53
2022-09-12T05:02:12.746Z,9.53
2022-09-12T05:03:12.686Z,9.53
2022-09-12T05:04:12.667Z,9.53
2022-09-12T05:05:12.656Z,9.56
2022-09-12T05:06:12.686Z,9.56
2022-09-12T05:07:12.632Z,9.54
2022-09-12T05:08:12.627Z,9.54
2022-09-12T05:09:12.618Z,9.57
2022-09-12T05:10:12.602Z,9.60
2022-09-12T05:11:12.583Z,9.58
2022-09-12T05:12:12.963Z,9.61
2022-09-12T05:13:12.557Z,9.61
2022-09-12T05:14:12.546Z,9.64
2022-09-12T05:15:12.531Z,9.65
2022-09-12T05:16:12.688Z,9.65
2022-09-12T05:17:12.504Z,9.68
2022-09-12T05:18:12.931Z,9.68
2022-09-12T05:19:12.483Z,9.71
2022-09-12T05:20:12.463Z,9.71
2022-09-12T05:21:12.463Z,9.75
2022-09-12T05:22:12.443Z,9.76
2022-09-12T05:23:12.871Z,9.78
2022-09-12T05:24:12.417Z,9.83
2022-09-12T05:25:12.403Z,9.86
2022-09-12T05:26:12.500Z,9.84
2022-09-12T05:27:12.380Z,9.86
2022-09-12T05:28:12.808Z,9.89
2022-09-12T05:29:12.364Z,9.90
2022-09-12T05:30:12.333Z,9.91
2022-09-12T05:31:12.340Z,9.94
2022-09-12T05:32:12.319Z,9.96
2022-09-12T05:33:12.709Z,9.99
2022-09-12T05:34:12.290Z,9.96
2022-09-12T05:35:12.276Z,9.96
2022-09-12T05:36:12.271Z,9.96
2022-09-12T05:37:12.255Z,9.97
2022-09-12T05:38:12.237Z,10.02
2022-09-12T05:39:12.599Z,10.05
2022-09-12T05:40:12.225Z,10.09
2022-09-12T05:41:16.648Z,10.12
2022-09-12T05:42:13.187Z,10.20
2022-09-12T05:43:12.178Z,10.20
2022-09-12T05:44:12.158Z,10.25
2022-09-12T05:45:12.487Z,10.17
2022-09-12T05:46:12.166Z,10.15
2022-09-12T05:47:12.118Z,10.14
2022-09-12T05:48:12.116Z,10.17
2022-09-12T05:49:12.095Z,10.20
2022-09-12T05:50:12.515Z,10.20
2022-09-12T05:51:12.072Z,10.23
2022-09-12T05:52:12.055Z,10.25
2022-09-12T05:53:12.046Z,10.30
2022-09-12T05:54:12.047Z,10.33
2022-09-12T05:55:12.034Z,10.36
2022-09-12T05:56:12.444Z,10.41
2022-09-12T05:57:11.994Z,10.47
2022-09-12T05:58:11.982Z,10.53
2022-09-12T05:59:11.986Z,10.59
2022-09-12T06:00:11.963Z,10.63
2022-09-12T06:01:11.979Z,10.64
2022-09-12T06:02:12.331Z,10.61
2022-09-12T06:03:11.929Z,10.64
2022-09-12T06:04:11.916Z,10.68
2022-09-12T06:05:11.891Z,10.71
2022-09-12T06:06:11.891Z,10.74
2022-09-12T06:07:11.865Z,10.76
2022-09-12T06:08:12.180Z,10.84
2022-09-12T06:09:11.984Z,10.89
2022-09-12T06:10:11.831Z,10.91
2022-09-12T06:11:11.822Z,10.86
2022-09-12T06:12:11.800Z,10.89
2022-09-12T06:13:12.248Z,10.89
2022-09-12T06:14:11.770Z,10.92
2022-09-12T06:15:11.788Z,11.02
2022-09-12T06:16:11.749Z,11.10
2022-09-12T06:17:11.748Z,11.15
2022-09-12T06:18:11.740Z,11.22
2022-09-12T06:19:12.154Z,11.33
2022-09-12T06:20:11.710Z,11.43
2022-09-12T06:21:11.728Z,11.43
2022-09-12T06:22:11.677Z,11.40
2022-09-12T06:23:11.674Z,11.39
2022-09-12T06:24:12.047Z,11.40
2022-09-12T06:25:11.645Z,11.39
2022-09-12T06:26:11.618Z,11.40
2022-09-12T06:27:11.619Z,11.42
2022-09-12T06:28:11.601Z,11.43
2022-09-12T06:29:11.595Z,11.46
2022-09-12T06:30:12.017Z,11.44
2022-09-12T06:31:11.638Z,11.44
2022-09-12T06:32:11.535Z,11.43
2022-09-12T06:33:11.535Z,11.40
2022-09-12T06:34:11.525Z,11.44
2022-09-12T06:35:11.510Z,11.52
2022-09-12T06:36:12.706Z,11.62
2022-09-12T06:37:11.492Z,11.79
2022-09-12T06:38:11.468Z,11.94
2022-09-12T06:39:11.456Z,12.13
2022-09-12T06:40:11.506Z,12.31
2022-09-12T06:41:11.866Z,12.32
2022-09-12T06:42:11.422Z,12.17
2022-09-12T06:43:11.405Z,12.16
2022-09-12T06:44:18.378Z,12.24
2022-09-12T06:45:18.376Z,12.34
2022-09-12T06:46:18.476Z,12.41
2022-09-12T06:47:11.352Z,12.47
2022-09-12T06:48:11.331Z,12.60
2022-09-12T06:49:11.329Z,12.75
2022-09-12T06:50:11.306Z,12.83
2022-09-12T06:51:11.298Z,12.89
2022-09-12T06:52:11.603Z,12.97
2022-09-12T06:53:11.278Z,13.07
2022-09-12T06:54:11.262Z,12.96
2022-09-12T06:55:11.245Z,12.78
2022-09-12T06:56:11.221Z,12.85
2022-09-12T06:57:11.221Z,12.92
2022-09-12T06:58:11.289Z,13.04
2022-09-12T06:59:11.197Z,13.08
2022-09-12T07:00:11.455Z,13.17
2022-09-12T07:01:11.227Z,13.25
2022-09-12T07:02:11.196Z,13.29
2022-09-12T07:03:11.139Z,13.44
2022-09-12T07:04:11.182Z,13.60
2022-09-12T07:05:11.145Z,13.63
2022-09-12T07:06:11.097Z,13.75
2022-09-12T07:07:11.092Z,13.73
2022-09-12T07:08:11.072Z,13.70
2022-09-12T07:09:11.073Z,13.82
2022-09-12T07:10:11.471Z,13.91
2022-09-12T07:11:11.039Z,13.88
2022-09-12T07:12:11.019Z,13.97
2022-09-12T07:13:11.008Z,14.09
2022-09-12T07:14:11.007Z,14.27
2022-09-12T07:15:11.029Z,14.03
2022-09-12T07:16:11.756Z,14.00
2022-09-12T07:17:10.981Z,14.03
2022-09-12T07:18:10.952Z,14.21
2022-09-12T07:19:10.933Z,14.06
2022-09-12T07:20:10.917Z,13.84
2022-09-12T07:21:10.927Z,13.75
2022-09-12T07:22:17.884Z,13.84
2022-09-12T07:23:17.872Z,13.96
2022-09-12T07:24:17.877Z,14.14
2022-09-12T07:25:11.277Z,14.33
2022-09-12T07:26:17.833Z,14.52
2022-09-12T07:27:17.829Z,14.61
2022-09-12T07:28:17.806Z,14.70
2022-09-12T07:29:35.246Z,14.77
2022-09-12T07:31:21.277Z,14.60
2022-09-12T07:32:28.946Z,14.42
2022-09-12T07:33:20.937Z,14.24
2022-09-12T07:34:20.926Z,14.24
2022-09-12T07:35:21.356Z,14.35
2022-09-12T07:36:20.951Z,14.27
2022-09-12T07:37:20.904Z,14.22
2022-09-12T07:38:20.893Z,14.35
2022-09-12T07:39:20.872Z,14.46
2022-09-12T07:40:21.275Z,14.62
2022-09-12T07:41:20.836Z,14.58
2022-09-12T07:42:20.828Z,14.65
2022-09-12T07:43:20.806Z,14.60
2022-09-12T07:44:20.805Z,14.73
2022-09-12T07:45:21.166Z,14.86
2022-09-12T07:46:20.814Z,14.88
2022-09-12T07:47:20.764Z,14.60
2022-09-12T07:48:20.745Z,14.21
2022-09-12T07:49:20.763Z,14.36
2022-09-12T07:50:21.062Z,14.65
2022-09-12T07:51:20.704Z,14.99
2022-09-12T07:52:20.695Z,15.13
2022-09-12T07:53:20.683Z,15.38
2022-09-12T07:54:20.673Z,15.93
2022-09-12T07:55:21.103Z,16.23
2022-09-12T07:56:20.665Z,16.45
2022-09-12T07:57:20.634Z,16.81
2022-09-12T07:58:20.616Z,17.01
2022-09-12T07:59:35.724Z,16.82
2022-09-12T08:00:22.032Z,16.73
2022-09-12T08:01:20.650Z,16.71
2022-09-12T08:02:20.612Z,16.67
2022-09-12T08:03:20.563Z,16.68
2022-09-12T08:04:20.543Z,16.81
2022-09-12T08:05:20.963Z,17.16
2022-09-12T08:06:20.525Z,17.58
2022-09-12T08:07:20.503Z,17.70
2022-09-12T08:08:20.500Z,17.87
2022-09-12T08:09:20.483Z,17.79
2022-09-12T08:10:20.460Z,17.77
2022-09-12T08:11:20.692Z,18.02
2022-09-12T08:12:20.465Z,18.10
2022-09-12T08:13:20.432Z,17.99
2022-09-12T08:14:20.421Z,18.02
2022-09-12T08:15:20.851Z,18.08
2022-09-12T08:16:20.383Z,17.95
2022-09-12T08:17:20.376Z,17.68
2022-09-12T08:18:20.372Z,17.51
2022-09-12T08:19:20.351Z,17.44
2022-09-12T08:20:20.331Z,17.23
2022-09-12T08:21:20.650Z,16.89
2022-09-12T08:22:20.303Z,16.60
2022-09-12T08:23:27.287Z,16.45
2022-09-12T08:24:27.294Z,16.27
2022-09-12T08:25:21.521Z,16.25
2022-09-12T08:26:20.256Z,16.31
2022-09-12T08:27:20.241Z,16.41
2022-09-12T08:28:20.240Z,16.46
2022-09-12T08:29:20.214Z,16.53
2022-09-12T08:30:20.250Z,16.63
2022-09-12T08:31:20.685Z,16.68
2022-09-12T08:32:20.183Z,16.76
2022-09-12T08:33:20.164Z,16.81
2022-09-12T08:34:20.173Z,16.81
2022-09-12T08:35:20.557Z,16.79
2022-09-12T08:36:20.125Z,16.79
2022-09-12T08:37:20.115Z,16.82
2022-09-12T08:38:20.103Z,16.93
2022-09-12T08:39:20.093Z,16.89
2022-09-12T08:40:20.436Z,16.89
2022-09-12T08:41:20.082Z,16.86
2022-09-12T08:42:20.052Z,16.89
2022-09-12T08:43:20.151Z,16.97
2022-09-12T08:44:20.034Z,16.94
2022-09-12T08:45:20.542Z,16.91
2022-09-12T08:46:20.099Z,16.94
2022-09-12T08:47:19.983Z,16.94
2022-09-12T08:48:19.972Z,16.89
2022-09-12T08:49:19.988Z,16.89
2022-09-12T08:50:20.324Z,16.93
2022-09-12T08:51:19.943Z,16.98
2022-09-12T08:52:19.924Z,17.08
2022-09-12T08:53:19.908Z,17.16
2022-09-12T08:54:19.932Z,17.16
2022-09-12T08:55:20.191Z,17.23
2022-09-12T08:56:19.943Z,17.34
2022-09-12T08:57:19.883Z,17.46
2022-09-12T08:58:19.838Z,17.55
2022-09-12T08:59:19.837Z,17.56
2022-09-12T09:00:20.279Z,17.52
2022-09-12T09:01:19.884Z,17.58
2022-09-12T09:02:19.815Z,17.66
2022-09-12T09:03:19.777Z,17.74
2022-09-12T09:04:19.772Z,17.79
2022-09-12T09:05:20.131Z,17.92
2022-09-12T09:06:19.741Z,17.95
2022-09-12T09:07:19.731Z,17.97
2022-09-12T09:08:19.710Z,18.05
2022-09-12T09:09:19.720Z,18.12
2022-09-12T09:10:20.120Z,18.15
2022-09-12T09:11:19.679Z,18.14
2022-09-12T09:12:19.659Z,18.20
2022-09-12T09:13:19.650Z,18.27
2022-09-12T09:14:19.629Z,18.37
2022-09-12T09:15:19.938Z,18.48
2022-09-12T09:16:19.683Z,18.52
2022-09-12T09:17:19.589Z,18.60
2022-09-12T09:18:19.586Z,18.60
2022-09-12T09:19:19.616Z,18.63
2022-09-12T09:20:21.159Z,18.73
2022-09-12T09:21:19.542Z,18.85
2022-09-12T09:22:19.536Z,18.99
2022-09-12T09:23:19.628Z,19.04
2022-09-12T09:24:19.524Z,19.11
2022-09-12T09:25:22.851Z,19.11
2022-09-12T09:26:19.477Z,19.08
2022-09-12T09:27:37.311Z,19.18
2022-09-12T09:28:20.466Z,19.25
2022-09-12T09:29:19.438Z,19.32
2022-09-12T09:30:19.763Z,19.33
2022-09-12T09:31:19.448Z,19.37
2022-09-12T09:32:19.406Z,19.32
2022-09-12T09:33:19.388Z,19.37
2022-09-12T09:34:19.398Z,19.44
2022-09-12T09:35:19.796Z,19.48
2022-09-12T09:36:19.493Z,19.58
2022-09-12T09:37:19.336Z,19.69
2022-09-12T09:38:19.439Z,19.76
2022-09-12T09:39:19.305Z,19.83
2022-09-12T09:40:19.734Z,19.98
2022-09-12T09:41:19.297Z,20.13
2022-09-12T09:42:19.310Z,20.24
2022-09-12T09:43:19.257Z,20.35
2022-09-12T09:44:19.253Z,20.47
2022-09-12T09:45:19.575Z,20.50
2022-09-12T09:46:19.289Z,20.51
2022-09-12T09:47:19.199Z,20.61
2022-09-12T09:48:19.188Z,20.72
2022-09-12T09:49:19.178Z,20.79
2022-09-12T09:50:19.203Z,20.82
2022-09-12T09:51:19.184Z,20.80
2022-09-12T09:52:19.145Z,20.77
2022-09-12T09:53:19.144Z,20.77
2022-09-12T09:54:19.127Z,20.74
2022-09-12T09:55:19.551Z,20.80
2022-09-12T09:56:21.499Z,20.88
2022-09-12T09:57:19.079Z,20.94
2022-09-12T09:58:19.074Z,20.94
2022-09-12T09:59:19.057Z,20.97
2022-09-12T10:00:19.414Z,20.99
2022-09-12T10:01:19.066Z,21.06
2022-09-12T10:02:23.671Z,21.13
2022-09-12T10:03:20.004Z,21.25
2022-09-12T10:04:19.013Z,21.37
2022-09-12T10:05:19.038Z,21.42
2022-09-12T10:06:18.974Z,21.44
2022-09-12T10:07:18.959Z,21.53
2022-09-12T10:08:18.946Z,21.64
2022-09-12T10:09:18.947Z,21.59
2022-09-12T10:10:18.939Z,21.67
2022-09-12T10:11:19.486Z,21.75
2022-09-12T10:12:18.917Z,21.83
2022-09-12T10:13:18.893Z,21.91
2022-09-12T10:14:20.853Z,22.02
2022-09-12T10:15:18.894Z,22.07
2022-09-12T10:16:18.975Z,22.03
2022-09-12T10:17:18.839Z,22.05
2022-09-12T10:18:18.838Z,22.05
2022-09-12T10:19:18.794Z,22.00
2022-09-12T10:20:21.838Z,22.09
2022-09-12T10:21:18.814Z,22.05
2022-09-12T10:22:18.803Z,22.07
2022-09-12T10:23:18.792Z,22.18
2022-09-12T10:24:18.752Z,22.30
2022-09-12T10:25:19.233Z,22.39
2022-09-12T10:26:18.703Z,22.45
2022-09-12T10:27:18.703Z,22.57
2022-09-12T10:28:18.700Z,22.67
2022-09-12T10:29:18.663Z,22.77
2022-09-12T10:30:18.712Z,22.90
2022-09-12T10:31:18.723Z,22.97
2022-09-12T10:32:18.654Z,22.98
2022-09-12T10:33:18.615Z,23.07
2022-09-12T10:34:18.601Z,23.19
2022-09-12T10:35:18.952Z,23.22
2022-09-12T10:36:18.604Z,23.17
2022-09-12T10:37:22.324Z,23.20
2022-09-12T10:38:18.561Z,23.22
2022-09-12T10:39:18.542Z,23.22
2022-09-12T10:40:18.974Z,23.31
2022-09-12T10:41:18.514Z,23.23
2022-09-12T10:42:22.841Z,23.22
2022-09-12T10:43:18.491Z,23.28
2022-09-12T10:44:18.482Z,23.39
2022-09-12T10:45:18.902Z,23.46
2022-09-12T10:46:18.580Z,23.58
2022-09-12T10:47:18.455Z,23.68
2022-09-12T10:48:18.432Z,23.46
2022-09-12T10:49:18.410Z,23.23
2022-09-12T10:50:22.834Z,23.19
2022-09-12T10:51:19.101Z,23.20
2022-09-12T10:52:18.398Z,23.32
2022-09-12T10:53:18.377Z,23.40
2022-09-12T10:54:18.371Z,23.28
2022-09-12T10:55:18.691Z,23.19
2022-09-12T10:56:18.333Z,23.10
2022-09-12T10:57:18.315Z,23.05
2022-09-12T10:58:18.332Z,23.04
2022-09-12T10:59:20.235Z,23.07
2022-09-12T11:00:18.292Z,23.20
2022-09-12T11:01:18.337Z,23.36
2022-09-12T11:02:18.306Z,23.32
2022-09-12T11:03:18.311Z,23.27
2022-09-12T11:04:18.231Z,23.36
2022-09-12T11:05:22.436Z,23.47
2022-09-12T11:06:18.235Z,23.50
2022-09-12T11:07:18.253Z,23.54
2022-09-12T11:08:18.455Z,23.63
2022-09-12T11:09:18.273Z,23.58
2022-09-12T11:10:18.504Z,23.51
2022-09-12T11:11:20.568Z,23.38
2022-09-12T11:12:18.400Z,23.32
2022-09-12T11:13:18.235Z,23.33
2022-09-12T11:14:18.109Z,23.33
2022-09-12T11:15:18.130Z,23.38
2022-09-12T11:16:25.062Z,23.53
2022-09-12T11:17:18.041Z,23.66
2022-09-12T11:18:26.984Z,23.76
2022-09-12T11:19:18.048Z,23.83
2022-09-12T11:20:25.071Z,23.94
2022-09-12T11:21:25.937Z,24.00
2022-09-12T11:22:28.642Z,24.03
2022-09-12T11:23:18.985Z,23.98
2022-09-12T11:24:25.998Z,24.05
2022-09-12T11:25:24.975Z,24.10
2022-09-12T11:26:17.955Z,24.16
2022-09-12T11:27:25.281Z,24.13
2022-09-12T11:28:17.911Z,24.20
2022-09-12T11:29:17.983Z,24.21
2022-09-12T11:30:18.009Z,24.28
2022-09-12T11:31:17.945Z,24.30
2022-09-12T11:32:17.870Z,24.31
2022-09-12T11:33:17.871Z,24.31
2022-09-12T11:34:17.958Z,24.27
2022-09-12T11:35:17.912Z,24.31
2022-09-12T11:36:17.922Z,24.27
2022-09-12T11:37:18.277Z,24.20
2022-09-12T11:38:17.829Z,24.20
2022-09-12T11:39:17.770Z,24.21
2022-09-12T11:40:18.013Z,24.22
2022-09-12T11:41:17.741Z,24.24
2022-09-12T11:42:17.751Z,24.30
2022-09-12T11:43:17.720Z,24.39
2022-09-12T11:44:17.720Z,24.52
2022-09-12T11:45:18.164Z,24.61
2022-09-12T11:46:17.828Z,24.61
2022-09-12T11:47:17.690Z,24.62
2022-09-12T11:48:17.672Z,24.55
2022-09-12T11:49:17.650Z,24.40
2022-09-12T11:50:17.858Z,24.42
2022-09-12T11:51:17.629Z,24.49
2022-09-12T11:52:17.624Z,24.52
2022-09-12T11:53:17.601Z,24.52
2022-09-12T11:54:17.667Z,24.50
2022-09-12T11:55:18.679Z,24.43
2022-09-12T11:56:17.657Z,24.43
2022-09-12T11:57:17.540Z,24.45
2022-09-12T11:58:17.540Z,24.43
2022-09-12T11:59:17.520Z,24.47
2022-09-12T12:00:17.514Z,24.49
2022-09-12T12:01:17.531Z,24.49
2022-09-12T12:02:17.529Z,24.50
2022-09-12T12:03:17.535Z,24.53
2022-09-12T12:04:17.468Z,24.50
2022-09-12T12:05:17.489Z,24.50
2022-09-12T12:06:17.444Z,24.43
2022-09-12T12:07:17.430Z,24.43
2022-09-12T12:08:17.409Z,24.49
2022-09-12T12:09:17.398Z,24.58
2022-09-12T12:10:17.396Z,24.64
2022-09-12T12:11:17.397Z,24.73
2022-09-12T12:12:17.387Z,24.87
2022-09-12T12:13:17.340Z,24.90
2022-09-12T12:14:17.330Z,24.95
2022-09-12T12:15:17.361Z,25.02
2022-09-12T12:16:17.325Z,25.05
2022-09-12T12:17:17.299Z,25.13
2022-09-12T12:18:17.279Z,25.21
2022-09-12T12:19:17.270Z,25.23
2022-09-12T12:20:17.273Z,25.21
2022-09-12T12:21:17.270Z,25.21
2022-09-12T12:22:17.239Z,25.20
2022-09-12T12:23:17.278Z,25.18
2022-09-12T12:24:17.208Z,25.13
2022-09-12T12:25:21.323Z,25.14
2022-09-12T12:26:17.190Z,25.17
2022-09-12T12:27:17.169Z,25.20
2022-09-12T12:28:17.168Z,25.21
2022-09-12T12:29:17.147Z,25.17
2022-09-12T12:30:17.298Z,25.18
2022-09-12T12:31:17.197Z,25.23
2022-09-12T12:32:17.275Z,25.21
2022-09-12T12:33:17.089Z,25.32
2022-09-12T12:34:17.091Z,25.39
2022-09-12T12:35:17.469Z,25.40
2022-09-12T12:36:17.067Z,25.46
2022-09-12T12:37:17.038Z,25.52
2022-09-12T12:38:17.029Z,25.60
2022-09-12T12:39:17.018Z,25.60
2022-09-12T12:40:17.067Z,25.52
2022-09-12T12:41:17.416Z,25.50
2022-09-12T12:42:19.161Z,25.51
2022-09-12T12:43:16.963Z,25.55
2022-09-12T12:44:17.053Z,25.65
2022-09-12T12:45:17.711Z,25.72
2022-09-12T12:46:16.998Z,25.70
2022-09-12T12:47:16.928Z,25.72
2022-09-12T12:48:16.902Z,25.79
2022-09-12T12:49:16.899Z,25.83
2022-09-12T12:50:16.881Z,25.83
2022-09-12T12:51:17.309Z,25.83
2022-09-12T12:52:16.860Z,25.83
2022-09-12T12:53:16.843Z,25.88
2022-09-12T12:54:16.838Z,25.98
2022-09-12T12:55:16.870Z,25.97
2022-09-12T12:56:16.799Z,25.85
2022-09-12T12:57:16.792Z,25.64
2022-09-12T12:58:16.780Z,25.47
2022-09-12T12:59:16.764Z,25.42
2022-09-12T13:00:16.761Z,25.45